sensor_id;sensor_type;location;lat;lon;timestamp;P1;durP1;ratioP1;P2;durP2;ratioP2
4786;SDS011;62338;48.832;9.422;2022-09-20T00:01:26;7.37;;;3.10;;
4786;SDS011;62338;48.832;9.422;2022-09-20T00:03:34;4.90;;;2.73;;
4786;SDS011;62338;48.832;9.422;2022-09-20T00:05:37;7.20;;;2.83;;
4786;SDS011;62338;48.832;9.422;2022-09-20T00:07:42;6.17;;;2.77;;
4786;SDS011;62338;48.832;9.422;2022-09-20T00:09:45;6.03;;;3.43;;
4786;SDS011;62338;48.832;9.422;2022-09-20T00:11:46;8.57;;;3.30;;
4786;SDS011;62338;48.832;9.422;2022-09-20T00:13:49;9.87;;;4.00;;
4786;SDS011;62338;48.832;9.422;2022-09-20T00:15:53;8.63;;;3.80;;
4786;SDS011;62338;48.832;9.422;2022-09-20T00:17:55;6.10;;;3.60;;
4786;SDS011;62338;48.832;9.422;2022-09-20T00:19:57;7.70;;;3.47;;
4786;SDS011;62338;48.832;9.422;2022-09-20T00:21:59;8.87;;;2.90;;
4786;SDS011;62338;48.832;9.422;2022-09-20T00:24:00;7.13;;;3.17;;
4786;SDS011;62338;48.832;9.422;2022-09-20T00:26:02;6.70;;;3.07;;
4786;SDS011;62338;48.832;9.422;2022-09-20T00:28:04;5.77;;;2.97;;
4786;SDS011;62338;48.832;9.422;2022-09-20T00:30:07;9.30;;;3.13;;
4786;SDS011;62338;48.832;9.422;2022-09-20T00:32:09;6.63;;;3.43;;
4786;SDS011;62338;48.832;9.422;2022-09-20T00:34:10;6.90;;;3.43;;
4786;SDS011;62338;48.832;9.422;2022-09-20T00:36:31;9.73;;;3.70;;
4786;SDS011;62338;48.832;9.422;2022-09-20T00:38:33;8.60;;;3.30;;
4786;SDS011;62338;48.832;9.422;2022-09-20T00:40:34;5.50;;;3.47;;
4786;SDS011;62338;48.832;9.422;2022-09-20T00:42:36;6.70;;;3.77;;
4786;SDS011;62338;48.832;9.422;2022-09-20T00:44:41;7.40;;;3.60;;
4786;SDS011;62338;48.832;9.422;2022-09-20T00:46:55;11.00;;;3.77;;
4786;SDS011;62338;48.832;9.422;2022-09-20T00:48:58;12.70;;;4.33;;
4786;SDS011;62338;48.832;9.422;2022-09-20T00:51:28;16.63;;;4.50;;
4786;SDS011;62338;48.832;9.422;2022-09-20T00:53:35;8.43;;;4.67;;
4786;SDS011;62338;48.832;9.422;2022-09-20T00:55:41;7.57;;;4.17;;
4786;SDS011;62338;48.832;9.422;2022-09-20T00:57:46;13.07;;;5.03;;
4786;SDS011;62338;48.832;9.422;2022-09-20T00:59:48;8.57;;;4.37;;
4786;SDS011;62338;48.832;9.422;2022-09-20T01:01:55;12.60;;;5.20;;
4786;SDS011;62338;48.832;9.422;2022-09-20T01:04:13;8.10;;;4.17;;
4786;SDS011;62338;48.832;9.422;2022-09-20T01:06:16;10.87;;;4.87;;
4786;SDS011;62338;48.832;9.422;2022-09-20T01:08:19;8.90;;;4.47;;
4786;SDS011;62338;48.832;9.422;2022-09-20T01:10:24;12.90;;;4.47;;
4786;SDS011;62338;48.832;9.422;2022-09-20T01:12:28;17.13;;;4.70;;
4786;SDS011;62338;48.832;9.422;2022-09-20T01:14:32;11.13;;;4.10;;
4786;SDS011;62338;48.832;9.422;2022-09-20T01:16:34;12.20;;;4.40;;
4786;SDS011;62338;48.832;9.422;2022-09-20T01:18:36;12.57;;;4.80;;
4786;SDS011;62338;48.832;9.422;2022-09-20T01:20:39;16.00;;;4.60;;
4786;SDS011;62338;48.832;9.422;2022-09-20T01:22:49;13.50;;;4.63;;
4786;SDS011;62338;48.832;9.422;2022-09-20T01:32:00;8.70;;;3.80;;
4786;SDS011;62338;48.832;9.422;2022-09-20T01:34:06;9.90;;;4.43;;
4786;SDS011;62338;48.832;9.422;2022-09-20T01:36:15;20.97;;;4.17;;
4786;SDS011;62338;48.832;9.422;2022-09-20T01:40:48;13.13;;;3.87;;
4786;SDS011;62338;48.832;9.422;2022-09-20T01:43:06;13.13;;;3.97;;
4786;SDS011;62338;48.832;9.422;2022-09-20T01:45:28;10.73;;;4.47;;
4786;SDS011;62338;48.832;9.422;2022-09-20T01:49:56;10.27;;;4.30;;
4786;SDS011;62338;48.832;9.422;2022-09-20T01:59:55;11.20;;;4.07;;
4786;SDS011;62338;48.832;9.422;2022-09-20T02:11:20;7.37;;;3.10;;
4786;SDS011;62338;48.832;9.422;2022-09-20T02:21:08;8.47;;;3.30;;
4786;SDS011;62338;48.832;9.422;2022-09-20T02:26:23;10.50;;;3.30;;
4786;SDS011;62338;48.832;9.422;2022-09-20T02:31:03;9.03;;;3.40;;
4786;SDS011;62338;48.832;9.422;2022-09-20T02:33:27;10.80;;;3.60;;
4786;SDS011;62338;48.832;9.422;2022-09-20T02:38:17;9.63;;;3.00;;
4786;SDS011;62338;48.832;9.422;2022-09-20T02:47:20;10.50;;;3.10;;
4786;SDS011;62338;48.832;9.422;2022-09-20T02:49:27;8.90;;;2.63;;
4786;SDS011;62338;48.832;9.422;2022-09-20T02:51:51;8.00;;;2.87;;
4786;SDS011;62338;48.832;9.422;2022-09-20T02:54:02;8.13;;;3.30;;
4786;SDS011;62338;48.832;9.422;2022-09-20T02:56:33;7.67;;;3.60;;
4786;SDS011;62338;48.832;9.422;2022-09-20T03:01:11;7.20;;;3.33;;
4786;SDS011;62338;48.832;9.422;2022-09-20T03:05:52;8.43;;;2.93;;
4786;SDS011;62338;48.832;9.422;2022-09-20T03:12:59;6.53;;;2.97;;
4786;SDS011;62338;48.832;9.422;2022-09-20T03:18:22;8.00;;;3.23;;
4786;SDS011;62338;48.832;9.422;2022-09-20T03:22:28;11.53;;;3.47;;
4786;SDS011;62338;48.832;9.422;2022-09-20T03:34:20;7.00;;;3.00;;
4786;SDS011;62338;48.832;9.422;2022-09-20T03:41:01;8.47;;;2.47;;
4786;SDS011;62338;48.832;9.422;2022-09-20T03:44:09;7.50;;;2.70;;
4786;SDS011;62338;48.832;9.422;2022-09-20T04:00:37;4.73;;;2.53;;
4786;SDS011;62338;48.832;9.422;2022-09-20T04:05:17;9.50;;;3.27;;
4786;SDS011;62338;48.832;9.422;2022-09-20T04:08:08;6.53;;;2.47;;
4786;SDS011;62338;48.832;9.422;2022-09-20T04:10:19;8.90;;;3.43;;
4786;SDS011;62338;48.832;9.422;2022-09-20T04:14:52;4.17;;;3.10;;
4786;SDS011;62338;48.832;9.422;2022-09-20T04:16:57;7.47;;;2.90;;
4786;SDS011;62338;48.832;9.422;2022-09-20T04:19:22;11.83;;;3.37;;
4786;SDS011;62338;48.832;9.422;2022-09-20T04:23:41;16.00;;;2.97;;
4786;SDS011;62338;48.832;9.422;2022-09-20T04:25:55;10.90;;;3.60;;
4786;SDS011;62338;48.832;9.422;2022-09-20T04:28:05;9.30;;;3.30;;
4786;SDS011;62338;48.832;9.422;2022-09-20T04:30:18;11.30;;;3.10;;
4786;SDS011;62338;48.832;9.422;2022-09-20T04:34:46;6.97;;;3.30;;
4786;SDS011;62338;48.832;9.422;2022-09-20T04:37:21;7.00;;;3.70;;
4786;SDS011;62338;48.832;9.422;2022-09-20T04:39:37;7.80;;;3.37;;
4786;SDS011;62338;48.832;9.422;2022-09-20T04:44:35;9.83;;;3.70;;
4786;SDS011;62338;48.832;9.422;2022-09-20T04:59:07;14.37;;;4.57;;
4786;SDS011;62338;48.832;9.422;2022-09-20T05:15:59;18.13;;;5.30;;
4786;SDS011;62338;48.832;9.422;2022-09-20T05:25:20;9.33;;;5.33;;
4786;SDS011;62338;48.832;9.422;2022-09-20T05:27:43;10.10;;;4.77;;
4786;SDS011;62338;48.832;9.422;2022-09-20T05:34:49;18.63;;;5.60;;
4786;SDS011;62338;48.832;9.422;2022-09-20T05:39:51;13.40;;;5.50;;
4786;SDS011;62338;48.832;9.422;2022-09-20T05:42:11;9.37;;;5.63;;
4786;SDS011;62338;48.832;9.422;2022-09-20T05:46:53;12.83;;;5.47;;
4786;SDS011;62338;48.832;9.422;2022-09-20T05:51:39;10.50;;;5.47;;
4786;SDS011;62338;48.832;9.422;2022-09-20T05:56:01;18.07;;;5.80;;
4786;SDS011;62338;48.832;9.422;2022-09-20T05:58:37;16.83;;;6.40;;
4786;SDS011;62338;48.832;9.422;2022-09-20T06:00:58;22.07;;;5.80;;
4786;SDS011;62338;48.832;9.422;2022-09-20T06:03:34;16.83;;;5.70;;
4786;SDS011;62338;48.832;9.422;2022-09-20T06:10:45;10.30;;;4.33;;
4786;SDS011;62338;48.832;9.422;2022-09-20T06:18:12;8.87;;;4.70;;
4786;SDS011;62338;48.832;9.422;2022-09-20T06:20:23;10.80;;;4.63;;
4786;SDS011;62338;48.832;9.422;2022-09-20T06:22:47;14.27;;;5.80;;
4786;SDS011;62338;48.832;9.422;2022-09-20T06:24:58;14.20;;;5.83;;
4786;SDS011;62338;48.832;9.422;2022-09-20T06:27:05;12.93;;;6.63;;
4786;SDS011;62338;48.832;9.422;2022-09-20T06:29:13;19.23;;;6.43;;
4786;SDS011;62338;48.832;9.422;2022-09-20T06:31:22;12.40;;;4.80;;
4786;SDS011;62338;48.832;9.422;2022-09-20T06:33:24;9.43;;;4.30;;
4786;SDS011;62338;48.832;9.422;2022-09-20T06:36:11;10.23;;;3.93;;
4786;SDS011;62338;48.832;9.422;2022-09-20T06:41:10;17.30;;;4.30;;
4786;SDS011;62338;48.832;9.422;2022-09-20T06:43:28;11.37;;;4.10;;
4786;SDS011;62338;48.832;9.422;2022-09-20T06:45:31;11.50;;;3.50;;
4786;SDS011;62338;48.832;9.422;2022-09-20T06:47:33;7.90;;;3.67;;
4786;SDS011;62338;48.832;9.422;2022-09-20T06:49:39;12.63;;;4.27;;
4786;SDS011;62338;48.832;9.422;2022-09-20T06:51:42;7.60;;;3.37;;
4786;SDS011;62338;48.832;9.422;2022-09-20T06:53:44;7.43;;;3.63;;
4786;SDS011;62338;48.832;9.422;2022-09-20T06:55:45;10.47;;;3.40;;
4786;SDS011;62338;48.832;9.422;2022-09-20T06:57:47;12.27;;;4.00;;
4786;SDS011;62338;48.832;9.422;2022-09-20T06:59:51;11.67;;;3.50;;
4786;SDS011;62338;48.832;9.422;2022-09-20T07:01:53;9.17;;;3.20;;
4786;SDS011;62338;48.832;9.422;2022-09-20T07:03:55;16.17;;;3.83;;
4786;SDS011;62338;48.832;9.422;2022-09-20T07:05:59;8.57;;;3.90;;
4786;SDS011;62338;48.832;9.422;2022-09-20T07:08:01;11.30;;;3.83;;
4786;SDS011;62338;48.832;9.422;2022-09-20T07:10:04;8.17;;;3.57;;
4786;SDS011;62338;48.832;9.422;2022-09-20T07:12:06;11.63;;;4.00;;
4786;SDS011;62338;48.832;9.422;2022-09-20T07:14:10;9.93;;;3.63;;
4786;SDS011;62338;48.832;9.422;2022-09-20T07:16:12;11.33;;;4.20;;
4786;SDS011;62338;48.832;9.422;2022-09-20T07:18:14;8.30;;;4.27;;
4786;SDS011;62338;48.832;9.422;2022-09-20T07:20:16;11.80;;;3.80;;
4786;SDS011;62338;48.832;9.422;2022-09-20T07:22:21;14.00;;;3.83;;
4786;SDS011;62338;48.832;9.422;2022-09-20T07:24:23;16.03;;;4.23;;
4786;SDS011;62338;48.832;9.422;2022-09-20T07:26:26;10.70;;;3.73;;
4786;SDS011;62338;48.832;9.422;2022-09-20T07:28:30;8.33;;;4.30;;
4786;SDS011;62338;48.832;9.422;2022-09-20T07:30:33;11.27;;;3.83;;
4786;SDS011;62338;48.832;9.422;2022-09-20T07:32:35;13.27;;;3.37;;
4786;SDS011;62338;48.832;9.422;2022-09-20T07:34:37;14.13;;;4.13;;
4786;SDS011;62338;48.832;9.422;2022-09-20T07:36:38;9.97;;;4.07;;
4786;SDS011;62338;48.832;9.422;2022-09-20T07:38:40;8.90;;;4.20;;
4786;SDS011;62338;48.832;9.422;2022-09-20T07:40:43;16.30;;;4.20;;
4786;SDS011;62338;48.832;9.422;2022-09-20T07:42:47;7.97;;;3.70;;
4786;SDS011;62338;48.832;9.422;2022-09-20T07:44:54;13.67;;;4.60;;
4786;SDS011;62338;48.832;9.422;2022-09-20T07:46:57;19.70;;;5.10;;
4786;SDS011;62338;48.832;9.422;2022-09-20T07:49:01;16.03;;;5.03;;
4786;SDS011;62338;48.832;9.422;2022-09-20T07:51:04;8.67;;;3.80;;
4786;SDS011;62338;48.832;9.422;2022-09-20T07:53:10;11.53;;;4.90;;
4786;SDS011;62338;48.832;9.422;2022-09-20T07:55:12;12.80;;;4.93;;
4786;SDS011;62338;48.832;9.422;2022-09-20T07:57:15;12.83;;;5.77;;
4786;SDS011;62338;48.832;9.422;2022-09-20T07:59:17;14.50;;;5.47;;
4786;SDS011;62338;48.832;9.422;2022-09-20T08:01:19;11.60;;;3.90;;
4786;SDS011;62338;48.832;9.422;2022-09-20T08:03:22;20.83;;;3.77;;
4786;SDS011;62338;48.832;9.422;2022-09-20T08:05:25;15.23;;;3.67;;
4786;SDS011;62338;48.832;9.422;2022-09-20T08:07:28;10.27;;;3.80;;
4786;SDS011;62338;48.832;9.422;2022-09-20T08:09:29;9.83;;;4.10;;
4786;SDS011;62338;48.832;9.422;2022-09-20T08:11:32;9.80;;;3.90;;
4786;SDS011;62338;48.832;9.422;2022-09-20T08:13:37;7.13;;;3.93;;
4786;SDS011;62338;48.832;9.422;2022-09-20T08:16:04;7.40;;;3.77;;
4786;SDS011;62338;48.832;9.422;2022-09-20T08:18:08;11.00;;;3.77;;
4786;SDS011;62338;48.832;9.422;2022-09-20T08:20:11;13.67;;;4.03;;
4786;SDS011;62338;48.832;9.422;2022-09-20T08:22:14;11.40;;;3.97;;
4786;SDS011;62338;48.832;9.422;2022-09-20T08:24:15;9.77;;;3.90;;
4786;SDS011;62338;48.832;9.422;2022-09-20T08:26:18;16.17;;;4.50;;
4786;SDS011;62338;48.832;9.422;2022-09-20T08:28:22;9.67;;;3.33;;
4786;SDS011;62338;48.832;9.422;2022-09-20T08:30:25;9.07;;;3.53;;
4786;SDS011;62338;48.832;9.422;2022-09-20T08:32:28;15.50;;;4.73;;
4786;SDS011;62338;48.832;9.422;2022-09-20T08:34:30;9.70;;;3.70;;
4786;SDS011;62338;48.832;9.422;2022-09-20T08:36:32;14.00;;;3.70;;
4786;SDS011;62338;48.832;9.422;2022-09-20T08:38:37;11.50;;;3.40;;
4786;SDS011;62338;48.832;9.422;2022-09-20T08:41:01;7.07;;;3.23;;
4786;SDS011;62338;48.832;9.422;2022-09-20T08:43:07;10.00;;;3.50;;
4786;SDS011;62338;48.832;9.422;2022-09-20T08:45:14;11.00;;;2.93;;
4786;SDS011;62338;48.832;9.422;2022-09-20T08:47:35;6.97;;;2.53;;
4786;SDS011;62338;48.832;9.422;2022-09-20T08:49:46;15.20;;;3.60;;
4786;SDS011;62338;48.832;9.422;2022-09-20T08:51:50;6.10;;;2.37;;
4786;SDS011;62338;48.832;9.422;2022-09-20T08:53:55;6.93;;;2.57;;
4786;SDS011;62338;48.832;9.422;2022-09-20T08:55:58;8.57;;;2.30;;
4786;SDS011;62338;48.832;9.422;2022-09-20T08:58:00;9.90;;;2.57;;
4786;SDS011;62338;48.832;9.422;2022-09-20T09:00:09;11.90;;;2.80;;
4786;SDS011;62338;48.832;9.422;2022-09-20T09:02:19;8.33;;;2.37;;
4786;SDS011;62338;48.832;9.422;2022-09-20T09:04:27;10.13;;;2.90;;
4786;SDS011;62338;48.832;9.422;2022-09-20T09:06:35;8.43;;;2.40;;
4786;SDS011;62338;48.832;9.422;2022-09-20T09:08:38;8.40;;;2.50;;
4786;SDS011;62338;48.832;9.422;2022-09-20T09:10:44;9.83;;;2.43;;
4786;SDS011;62338;48.832;9.422;2022-09-20T09:12:51;8.73;;;2.50;;
4786;SDS011;62338;48.832;9.422;2022-09-20T09:14:56;8.30;;;2.53;;
4786;SDS011;62338;48.832;9.422;2022-09-20T09:16:59;17.67;;;3.20;;
4786;SDS011;62338;48.832;9.422;2022-09-20T09:21:34;8.87;;;2.10;;
4786;SDS011;62338;48.832;9.422;2022-09-20T09:23:38;10.67;;;2.43;;
4786;SDS011;62338;48.832;9.422;2022-09-20T09:25:41;10.13;;;2.67;;
4786;SDS011;62338;48.832;9.422;2022-09-20T09:30:17;10.67;;;2.40;;
4786;SDS011;62338;48.832;9.422;2022-09-20T09:32:23;12.43;;;4.07;;
4786;SDS011;62338;48.832;9.422;2022-09-20T09:34:30;9.03;;;2.37;;
4786;SDS011;62338;48.832;9.422;2022-09-20T09:36:42;9.17;;;3.40;;
4786;SDS011;62338;48.832;9.422;2022-09-20T09:38:49;10.70;;;2.47;;
4786;SDS011;62338;48.832;9.422;2022-09-20T09:40:53;10.10;;;2.60;;
4786;SDS011;62338;48.832;9.422;2022-09-20T09:42:59;7.77;;;2.27;;
4786;SDS011;62338;48.832;9.422;2022-09-20T09:45:10;14.77;;;2.40;;
4786;SDS011;62338;48.832;9.422;2022-09-20T09:47:27;7.13;;;1.80;;
4786;SDS011;62338;48.832;9.422;2022-09-20T09:49:30;6.37;;;1.93;;
4786;SDS011;62338;48.832;9.422;2022-09-20T09:51:36;10.00;;;2.00;;
4786;SDS011;62338;48.832;9.422;2022-09-20T09:53:39;9.17;;;1.97;;
4786;SDS011;62338;48.832;9.422;2022-09-20T09:58:04;9.00;;;1.80;;
4786;SDS011;62338;48.832;9.422;2022-09-20T10:00:29;7.33;;;2.23;;
4786;SDS011;62338;48.832;9.422;2022-09-20T10:05:13;13.13;;;2.20;;
4786;SDS011;62338;48.832;9.422;2022-09-20T10:09:58;7.77;;;2.30;;
4786;SDS011;62338;48.832;9.422;2022-09-20T10:12:14;11.20;;;2.20;;
4786;SDS011;62338;48.832;9.422;2022-09-20T10:19:47;6.03;;;1.90;;
4786;SDS011;62338;48.832;9.422;2022-09-20T10:24:31;6.20;;;2.10;;
4786;SDS011;62338;48.832;9.422;2022-09-20T10:28:54;9.27;;;1.87;;
4786;SDS011;62338;48.832;9.422;2022-09-20T10:33:14;6.90;;;1.90;;
4786;SDS011;62338;48.832;9.422;2022-09-20T10:35:25;8.63;;;1.80;;
4786;SDS011;62338;48.832;9.422;2022-09-20T10:39:57;6.37;;;2.60;;
4786;SDS011;62338;48.832;9.422;2022-09-20T10:47:16;7.27;;;1.73;;
4786;SDS011;62338;48.832;9.422;2022-09-20T10:51:58;10.50;;;2.43;;
4786;SDS011;62338;48.832;9.422;2022-09-20T10:54:09;4.60;;;1.63;;
4786;SDS011;62338;48.832;9.422;2022-09-20T10:56:36;9.27;;;2.00;;
4786;SDS011;62338;48.832;9.422;2022-09-20T11:08:05;8.60;;;2.00;;
4786;SDS011;62338;48.832;9.422;2022-09-20T11:14:40;10.77;;;1.83;;
4786;SDS011;62338;48.832;9.422;2022-09-20T11:17:11;6.53;;;1.53;;
4786;SDS011;62338;48.832;9.422;2022-09-20T11:19:23;7.50;;;1.97;;
4786;SDS011;62338;48.832;9.422;2022-09-20T11:21:33;9.60;;;2.20;;
4786;SDS011;62338;48.832;9.422;2022-09-20T11:23:43;5.97;;;1.53;;
4786;SDS011;62338;48.832;9.422;2022-09-20T11:26:15;9.83;;;2.63;;
4786;SDS011;62338;48.832;9.422;2022-09-20T11:28:27;15.13;;;2.00;;
4786;SDS011;62338;48.832;9.422;2022-09-20T11:30:40;7.27;;;2.40;;
4786;SDS011;62338;48.832;9.422;2022-09-20T11:32:52;13.23;;;2.10;;
4786;SDS011;62338;48.832;9.422;2022-09-20T11:35:10;6.73;;;2.07;;
4786;SDS011;62338;48.832;9.422;2022-09-20T11:37:14;8.80;;;2.53;;
4786;SDS011;62338;48.832;9.422;2022-09-20T11:39:24;8.00;;;1.90;;
4786;SDS011;62338;48.832;9.422;2022-09-20T11:41:30;6.40;;;1.90;;
4786;SDS011;62338;48.832;9.422;2022-09-20T11:43:33;9.30;;;2.07;;
4786;SDS011;62338;48.832;9.422;2022-09-20T11:45:36;7.33;;;1.70;;
4786;SDS011;62338;48.832;9.422;2022-09-20T11:47:41;7.03;;;2.13;;
4786;SDS011;62338;48.832;9.422;2022-09-20T11:52:26;9.03;;;1.77;;
4786;SDS011;62338;48.832;9.422;2022-09-20T11:57:07;5.90;;;1.70;;
4786;SDS011;62338;48.832;9.422;2022-09-20T11:59:25;12.30;;;1.90;;
4786;SDS011;62338;48.832;9.422;2022-09-20T12:01:35;9.10;;;1.90;;
4786;SDS011;62338;48.832;9.422;2022-09-20T12:03:40;6.90;;;1.90;;
4786;SDS011;62338;48.832;9.422;2022-09-20T12:05:44;7.50;;;1.93;;
4786;SDS011;62338;48.832;9.422;2022-09-20T12:07:47;10.93;;;2.07;;
4786;SDS011;62338;48.832;9.422;2022-09-20T12:09:55;8.83;;;2.03;;
4786;SDS011;62338;48.832;9.422;2022-09-20T12:14:28;10.23;;;2.17;;
4786;SDS011;62338;48.832;9.422;2022-09-20T12:16:42;6.07;;;1.70;;
4786;SDS011;62338;48.832;9.422;2022-09-20T12:25:38;5.70;;;2.10;;
4786;SDS011;62338;48.832;9.422;2022-09-20T12:31:51;8.00;;;2.10;;
4786;SDS011;62338;48.832;9.422;2022-09-20T12:36:13;8.90;;;2.03;;
4786;SDS011;62338;48.832;9.422;2022-09-20T12:40:27;7.77;;;2.10;;
4786;SDS011;62338;48.832;9.422;2022-09-20T12:42:30;5.90;;;1.80;;
4786;SDS011;62338;48.832;9.422;2022-09-20T12:44:35;8.17;;;2.00;;
4786;SDS011;62338;48.832;9.422;2022-09-20T12:46:41;6.43;;;1.97;;
4786;SDS011;62338;48.832;9.422;2022-09-20T12:49:07;7.17;;;3.57;;
4786;SDS011;62338;48.832;9.422;2022-09-20T12:51:40;6.00;;;1.97;;
4786;SDS011;62338;48.832;9.422;2022-09-20T12:54:07;6.03;;;2.50;;
4786;SDS011;62338;48.832;9.422;2022-09-20T12:56:13;15.70;;;2.73;;
4786;SDS011;62338;48.832;9.422;2022-09-20T12:58:25;8.20;;;2.23;;
4786;SDS011;62338;48.832;9.422;2022-09-20T13:00:41;8.53;;;1.87;;
4786;SDS011;62338;48.832;9.422;2022-09-20T13:03:11;10.67;;;2.57;;
4786;SDS011;62338;48.832;9.422;2022-09-20T13:05:34;10.30;;;2.57;;
4786;SDS011;62338;48.832;9.422;2022-09-20T13:07:39;9.23;;;2.30;;
4786;SDS011;62338;48.832;9.422;2022-09-20T13:09:47;8.77;;;2.60;;
4786;SDS011;62338;48.832;9.422;2022-09-20T13:11:50;11.43;;;2.07;;
4786;SDS011;62338;48.832;9.422;2022-09-20T13:18:24;8.60;;;3.10;;
4786;SDS011;62338;48.832;9.422;2022-09-20T13:20:28;9.90;;;2.80;;
4786;SDS011;62338;48.832;9.422;2022-09-20T13:22:35;12.10;;;2.77;;
4786;SDS011;62338;48.832;9.422;2022-09-20T13:24:48;6.23;;;2.57;;
4786;SDS011;62338;48.832;9.422;2022-09-20T13:26:59;7.13;;;2.80;;
4786;SDS011;62338;48.832;9.422;2022-09-20T13:29:07;8.53;;;2.47;;
4786;SDS011;62338;48.832;9.422;2022-09-20T13:33:22;4.73;;;1.90;;
4786;SDS011;62338;48.832;9.422;2022-09-20T13:35:25;8.33;;;2.20;;
4786;SDS011;62338;48.832;9.422;2022-09-20T13:37:31;8.80;;;2.20;;
4786;SDS011;62338;48.832;9.422;2022-09-20T13:39:34;8.30;;;2.43;;
4786;SDS011;62338;48.832;9.422;2022-09-20T13:41:37;7.57;;;2.17;;
4786;SDS011;62338;48.832;9.422;2022-09-20T13:43:40;7.13;;;2.40;;
4786;SDS011;62338;48.832;9.422;2022-09-20T13:45:44;7.30;;;1.57;;
4786;SDS011;62338;48.832;9.422;2022-09-20T13:47:49;11.83;;;2.57;;
4786;SDS011;62338;48.832;9.422;2022-09-20T13:49:51;8.43;;;2.07;;
4786;SDS011;62338;48.832;9.422;2022-09-20T13:52:09;8.10;;;2.20;;
4786;SDS011;62338;48.832;9.422;2022-09-20T13:56:32;5.27;;;1.50;;
4786;SDS011;62338;48.832;9.422;2022-09-20T13:58:33;4.80;;;1.83;;
4786;SDS011;62338;48.832;9.422;2022-09-20T14:00:37;7.60;;;1.93;;
4786;SDS011;62338;48.832;9.422;2022-09-20T14:02:47;9.43;;;2.07;;
4786;SDS011;62338;48.832;9.422;2022-09-20T14:04:51;5.60;;;1.90;;
4786;SDS011;62338;48.832;9.422;2022-09-20T14:06:55;7.20;;;2.20;;
4786;SDS011;62338;48.832;9.422;2022-09-20T14:09:00;7.03;;;1.60;;
4786;SDS011;62338;48.832;9.422;2022-09-20T14:11:15;5.37;;;1.60;;
4786;SDS011;62338;48.832;9.422;2022-09-20T14:13:19;6.77;;;2.33;;
4786;SDS011;62338;48.832;9.422;2022-09-20T14:15:21;5.18;;;1.95;;
4786;SDS011;62338;48.832;9.422;2022-09-20T14:17:23;7.90;;;1.73;;
4786;SDS011;62338;48.832;9.422;2022-09-20T14:19:30;11.93;;;2.10;;
4786;SDS011;62338;48.832;9.422;2022-09-20T14:21:35;10.77;;;2.58;;
4786;SDS011;62338;48.832;9.422;2022-09-20T14:23:50;6.75;;;2.38;;
4786;SDS011;62338;48.832;9.422;2022-09-20T14:26:04;6.53;;;1.90;;
4786;SDS011;62338;48.832;9.422;2022-09-20T14:28:22;5.93;;;2.03;;
4786;SDS011;62338;48.832;9.422;2022-09-20T14:30:30;7.00;;;2.20;;
4786;SDS011;62338;48.832;9.422;2022-09-20T14:32:38;7.07;;;2.37;;
4786;SDS011;62338;48.832;9.422;2022-09-20T14:35:06;8.83;;;2.20;;
4786;SDS011;62338;48.832;9.422;2022-09-20T14:37:25;11.87;;;2.27;;
4786;SDS011;62338;48.832;9.422;2022-09-20T14:39:33;8.20;;;2.67;;
4786;SDS011;62338;48.832;9.422;2022-09-20T14:41:45;5.63;;;2.40;;
4786;SDS011;62338;48.832;9.422;2022-09-20T14:43:47;6.30;;;1.73;;
4786;SDS011;62338;48.832;9.422;2022-09-20T14:45:58;9.83;;;2.07;;
4786;SDS011;62338;48.832;9.422;2022-09-20T14:52:31;5.13;;;2.10;;
4786;SDS011;62338;48.832;9.422;2022-09-20T14:54:37;8.30;;;2.23;;
4786;SDS011;62338;48.832;9.422;2022-09-20T14:56:40;13.53;;;2.10;;
4786;SDS011;62338;48.832;9.422;2022-09-20T15:01:17;12.00;;;2.57;;
4786;SDS011;62338;48.832;9.422;2022-09-20T15:03:25;9.73;;;2.10;;
4786;SDS011;62338;48.832;9.422;2022-09-20T15:05:32;7.53;;;2.10;;
4786;SDS011;62338;48.832;9.422;2022-09-20T15:07:35;6.40;;;2.10;;
4786;SDS011;62338;48.832;9.422;2022-09-20T15:09:37;9.00;;;2.00;;
4786;SDS011;62338;48.832;9.422;2022-09-20T15:11:39;8.40;;;2.77;;
4786;SDS011;62338;48.832;9.422;2022-09-20T15:13:42;5.23;;;1.93;;
4786;SDS011;62338;48.832;9.422;2022-09-20T15:15:49;7.97;;;2.10;;
4786;SDS011;62338;48.832;9.422;2022-09-20T15:17:53;9.13;;;1.80;;
4786;SDS011;62338;48.832;9.422;2022-09-20T15:19:54;6.77;;;2.30;;
4786;SDS011;62338;48.832;9.422;2022-09-20T15:21:57;12.87;;;2.40;;
4786;SDS011;62338;48.832;9.422;2022-09-20T15:24:00;8.07;;;2.27;;
4786;SDS011;62338;48.832;9.422;2022-09-20T15:26:02;4.37;;;2.10;;
4786;SDS011;62338;48.832;9.422;2022-09-20T15:28:04;2.97;;;1.50;;
4786;SDS011;62338;48.832;9.422;2022-09-20T15:30:08;5.47;;;1.80;;
4786;SDS011;62338;48.832;9.422;2022-09-20T15:32:15;4.87;;;2.10;;
4786;SDS011;62338;48.832;9.422;2022-09-20T15:34:16;9.90;;;2.00;;
4786;SDS011;62338;48.832;9.422;2022-09-20T15:36:20;6.00;;;1.90;;
4786;SDS011;62338;48.832;9.422;2022-09-20T15:38:21;7.37;;;2.70;;
4786;SDS011;62338;48.832;9.422;2022-09-20T15:40:26;12.27;;;3.00;;
4786;SDS011;62338;48.832;9.422;2022-09-20T15:42:29;7.40;;;2.80;;
4786;SDS011;62338;48.832;9.422;2022-09-20T15:44:30;6.33;;;1.83;;
4786;SDS011;62338;48.832;9.422;2022-09-20T15:46:33;8.30;;;2.00;;
4786;SDS011;62338;48.832;9.422;2022-09-20T15:48:35;5.67;;;2.00;;
4786;SDS011;62338;48.832;9.422;2022-09-20T15:50:38;7.17;;;2.43;;
4786;SDS011;62338;48.832;9.422;2022-09-20T15:52:40;5.53;;;1.77;;
4786;SDS011;62338;48.832;9.422;2022-09-20T15:54:43;7.33;;;2.60;;
4786;SDS011;62338;48.832;9.422;2022-09-20T15:56:46;4.43;;;1.80;;
4786;SDS011;62338;48.832;9.422;2022-09-20T15:58:48;5.33;;;1.80;;
4786;SDS011;62338;48.832;9.422;2022-09-20T16:00:51;7.07;;;1.87;;
4786;SDS011;62338;48.832;9.422;2022-09-20T16:02:53;4.43;;;1.77;;
4786;SDS011;62338;48.832;9.422;2022-09-20T16:04:55;7.53;;;2.03;;
4786;SDS011;62338;48.832;9.422;2022-09-20T16:06:59;7.10;;;2.10;;
4786;SDS011;62338;48.832;9.422;2022-09-20T16:09:01;9.90;;;2.03;;
4786;SDS011;62338;48.832;9.422;2022-09-20T16:11:04;8.00;;;2.10;;
4786;SDS011;62338;48.832;9.422;2022-09-20T16:13:06;5.13;;;2.07;;
4786;SDS011;62338;48.832;9.422;2022-09-20T16:15:08;7.40;;;2.03;;
4786;SDS011;62338;48.832;9.422;2022-09-20T16:17:10;4.60;;;1.90;;
4786;SDS011;62338;48.832;9.422;2022-09-20T16:19:13;5.53;;;2.30;;
4786;SDS011;62338;48.832;9.422;2022-09-20T16:21:18;9.20;;;2.40;;
4786;SDS011;62338;48.832;9.422;2022-09-20T16:23:20;7.13;;;2.13;;
4786;SDS011;62338;48.832;9.422;2022-09-20T16:25:26;9.50;;;2.50;;
4786;SDS011;62338;48.832;9.422;2022-09-20T16:27:28;7.10;;;2.30;;
4786;SDS011;62338;48.832;9.422;2022-09-20T16:29:31;6.73;;;2.03;;
4786;SDS011;62338;48.832;9.422;2022-09-20T16:31:34;9.10;;;2.17;;
4786;SDS011;62338;48.832;9.422;2022-09-20T16:33:41;5.83;;;2.07;;
4786;SDS011;62338;48.832;9.422;2022-09-20T16:35:42;7.53;;;2.30;;
4786;SDS011;62338;48.832;9.422;2022-09-20T16:37:44;11.13;;;2.63;;
4786;SDS011;62338;48.832;9.422;2022-09-20T16:39:46;8.63;;;2.10;;
4786;SDS011;62338;48.832;9.422;2022-09-20T16:41:48;6.93;;;1.73;;
4786;SDS011;62338;48.832;9.422;2022-09-20T16:43:51;4.43;;;1.93;;
4786;SDS011;62338;48.832;9.422;2022-09-20T16:45:59;7.90;;;3.20;;
4786;SDS011;62338;48.832;9.422;2022-09-20T16:48:01;6.20;;;3.13;;
4786;SDS011;62338;48.832;9.422;2022-09-20T16:50:08;6.80;;;2.53;;
4786;SDS011;62338;48.832;9.422;2022-09-20T16:52:10;5.50;;;2.57;;
4786;SDS011;62338;48.832;9.422;2022-09-20T16:54:13;5.50;;;2.13;;
4786;SDS011;62338;48.832;9.422;2022-09-20T16:56:17;5.23;;;2.00;;
4786;SDS011;62338;48.832;9.422;2022-09-20T16:58:25;5.73;;;2.90;;
4786;SDS011;62338;48.832;9.422;2022-09-20T17:00:29;6.77;;;2.60;;
4786;SDS011;62338;48.832;9.422;2022-09-20T17:02:33;8.17;;;2.73;;
4786;SDS011;62338;48.832;9.422;2022-09-20T17:04:36;8.73;;;3.53;;
4786;SDS011;62338;48.832;9.422;2022-09-20T17:06:38;15.40;;;6.77;;
4786;SDS011;62338;48.832;9.422;2022-09-20T17:08:41;12.67;;;6.30;;
4786;SDS011;62338;48.832;9.422;2022-09-20T17:10:45;8.70;;;4.47;;
4786;SDS011;62338;48.832;9.422;2022-09-20T17:12:47;7.80;;;3.53;;
4786;SDS011;62338;48.832;9.422;2022-09-20T17:14:55;6.13;;;3.40;;
4786;SDS011;62338;48.832;9.422;2022-09-20T17:16:58;3.87;;;2.27;;